createdAt,value
2018-12-12T00:00:44.684Z,19.63
2018-12-12T00:03:13.377Z,19.67
2018-12-12T00:05:42.080Z,18.63
2018-12-12T00:08:10.581Z,19.67
2018-12-12T00:10:39.263Z,19.23
2018-12-12T00:13:07.704Z,19.03
2018-12-12T00:15:36.317Z,19.93
2018-12-12T00:18:05.037Z,19.40
2018-12-12T00:20:33.478Z,18.97
2018-12-12T00:23:02.081Z,19.33
2018-12-12T00:25:30.624Z,19.50
2018-12-12T00:27:59.151Z,18.57
2018-12-12T00:30:27.654Z,18.50
2018-12-12T00:32:56.100Z,18.60
2018-12-12T00:35:24.667Z,18.00
2018-12-12T00:37:53.128Z,18.10
2018-12-12T00:40:21.729Z,18.77
2018-12-12T00:42:50.850Z,18.17
2018-12-12T00:45:19.892Z,17.60
2018-12-12T00:47:48.356Z,18.70
2018-12-12T00:50:16.884Z,18.20
2018-12-12T00:52:45.508Z,18.60
2018-12-12T00:55:14.047Z,18.50
2018-12-12T00:57:42.631Z,18.63
2018-12-12T01:00:11.303Z,18.03
2018-12-12T01:02:39.895Z,18.83
2018-12-12T01:05:08.327Z,17.83
2018-12-12T01:07:36.763Z,17.93
2018-12-12T01:10:05.219Z,18.53
2018-12-12T01:12:34.317Z,18.13
2018-12-12T01:15:02.773Z,17.87
2018-12-12T01:17:31.777Z,17.13
2018-12-12T01:20:00.197Z,17.73
2018-12-12T01:22:28.747Z,17.93
2018-12-12T01:24:57.255Z,17.17
2018-12-12T01:27:25.912Z,17.20
2018-12-12T01:29:54.492Z,17.47
2018-12-12T01:32:23.053Z,17.57
2018-12-12T01:34:51.564Z,17.63
2018-12-12T01:37:20.174Z,17.60
2018-12-12T01:39:48.723Z,17.43
2018-12-12T01:42:17.198Z,16.77
2018-12-12T01:44:45.665Z,18.17
2018-12-12T01:47:14.264Z,16.93
2018-12-12T01:49:42.877Z,17.00
2018-12-12T01:52:11.349Z,16.50
2018-12-12T01:54:39.884Z,16.80
2018-12-12T01:57:08.466Z,17.23
2018-12-12T01:59:36.998Z,16.20
2018-12-12T02:02:05.501Z,16.83
2018-12-12T02:04:34.185Z,16.00
2018-12-12T02:07:02.809Z,15.90
2018-12-12T02:09:31.299Z,15.97
2018-12-12T02:11:59.963Z,15.97
2018-12-12T02:14:28.414Z,15.77
2018-12-12T02:16:57.075Z,15.07
2018-12-12T02:19:26.154Z,15.33
2018-12-12T02:21:54.732Z,14.80
2018-12-12T02:24:23.305Z,14.93
2018-12-12T02:26:51.988Z,15.40
2018-12-12T02:29:20.486Z,15.13
2018-12-12T02:31:49.013Z,14.20
2018-12-12T02:34:17.463Z,14.97
2018-12-12T02:36:45.943Z,14.27
2018-12-12T02:39:14.503Z,14.40
2018-12-12T02:41:43.081Z,13.90
2018-12-12T02:44:11.715Z,14.27
2018-12-12T02:46:40.209Z,13.10
2018-12-12T02:49:08.665Z,13.03
2018-12-12T02:51:37.372Z,13.73
2018-12-12T02:54:06.329Z,13.33
2018-12-12T02:56:34.910Z,13.07
2018-12-12T02:59:03.328Z,12.43
2018-12-12T03:01:31.768Z,13.20
2018-12-12T03:04:00.361Z,12.53
2018-12-12T03:06:29.021Z,12.13
2018-12-12T03:08:57.444Z,11.90
2018-12-12T03:11:26.054Z,12.30
2018-12-12T03:13:55.528Z,12.00
2018-12-12T03:16:24.728Z,11.60
2018-12-12T03:18:53.374Z,10.83
2018-12-12T03:21:22.077Z,11.27
2018-12-12T03:23:50.508Z,10.97
2018-12-12T03:26:19.049Z,10.63
2018-12-12T03:28:47.515Z,10.30
2018-12-12T03:31:16.991Z,10.10
2018-12-12T03:33:46.063Z,9.93
2018-12-12T03:36:14.500Z,9.80
2018-12-12T03:38:42.982Z,10.17
2018-12-12T03:41:11.503Z,10.20
2018-12-12T03:43:39.945Z,9.13
2018-12-12T03:46:08.459Z,9.60
2018-12-12T03:48:37.069Z,9.37
2018-12-12T03:51:05.616Z,9.07
2018-12-12T03:53:34.431Z,9.00
2018-12-12T03:56:03.134Z,8.83
2018-12-12T03:58:32.428Z,8.83
2018-12-12T04:01:01.041Z,8.73
2018-12-12T04:03:29.581Z,8.37
2018-12-12T04:05:58.039Z,7.97
2018-12-12T04:08:26.648Z,8.17
2018-12-12T04:10:55.631Z,8.17
2018-12-12T04:13:24.207Z,7.20
2018-12-12T04:15:52.723Z,7.03
2018-12-12T04:18:21.269Z,7.73
2018-12-12T04:20:50.295Z,7.63
2018-12-12T04:23:18.700Z,6.73
2018-12-12T04:25:47.261Z,7.43
2018-12-12T04:28:15.670Z,7.03
2018-12-12T04:30:44.450Z,6.47
2018-12-12T04:33:12.954Z,6.07
2018-12-12T04:35:41.722Z,6.50
2018-12-12T04:38:10.306Z,6.47
2018-12-12T04:40:39.739Z,6.50
2018-12-12T04:43:09.203Z,6.70
2018-12-12T04:45:37.872Z,6.13
2018-12-12T04:48:06.838Z,5.90
2018-12-12T04:50:35.479Z,5.43
2018-12-12T04:53:04.077Z,6.13
2018-12-12T04:55:32.517Z,5.97
2018-12-12T04:58:01.190Z,5.20
2018-12-12T05:00:29.658Z,5.57
2018-12-12T05:02:58.532Z,5.73
2018-12-12T05:05:27.054Z,5.30
2018-12-12T05:07:55.572Z,5.20
2018-12-12T05:10:25.002Z,5.33
2018-12-12T05:12:53.529Z,5.23
2018-12-12T05:15:22.004Z,4.90
2018-12-12T05:17:50.418Z,5.00
2018-12-12T05:20:18.839Z,4.90
2018-12-12T05:22:47.427Z,4.90
2018-12-12T05:25:15.875Z,4.87
2018-12-12T05:27:44.320Z,4.70
2018-12-12T05:30:12.830Z,4.57
2018-12-12T05:32:41.312Z,4.70
2018-12-12T05:35:09.839Z,4.23
2018-12-12T05:37:38.292Z,4.43
2018-12-12T05:40:07.177Z,4.00
2018-12-12T05:42:35.983Z,4.07
2018-12-12T05:45:04.640Z,3.90
2018-12-12T05:47:33.231Z,4.13
2018-12-12T05:50:01.704Z,3.70
2018-12-12T05:52:30.447Z,3.60
2018-12-12T05:54:58.903Z,4.10
2018-12-12T05:57:27.409Z,3.73
2018-12-12T05:59:56.045Z,3.93
2018-12-12T06:02:24.718Z,3.73
2018-12-12T06:04:53.517Z,3.50
2018-12-12T06:07:21.929Z,3.73
2018-12-12T06:09:50.636Z,3.37
2018-12-12T06:12:19.161Z,3.63
2018-12-12T06:14:47.806Z,3.43
2018-12-12T06:17:16.362Z,3.20
2018-12-12T06:19:45.140Z,3.60
2018-12-12T06:22:13.791Z,3.37
2018-12-12T06:24:42.490Z,3.10
2018-12-12T06:27:10.993Z,3.33
2018-12-12T06:29:40.377Z,3.40
2018-12-12T06:32:08.772Z,3.13
2018-12-12T06:34:37.337Z,3.07
2018-12-12T06:37:06.627Z,3.07
2018-12-12T06:39:35.053Z,2.70
2018-12-12T06:42:03.540Z,3.63
2018-12-12T06:44:32.034Z,2.97
2018-12-12T06:47:00.564Z,2.80
2018-12-12T06:49:28.992Z,3.03
2018-12-12T06:51:57.725Z,3.10
2018-12-12T06:54:26.458Z,3.00
2018-12-12T06:56:55.251Z,2.97
2018-12-12T06:59:24.221Z,2.77
2018-12-12T07:01:53.038Z,2.57
2018-12-12T07:04:21.483Z,3.07
2018-12-12T07:06:50.700Z,2.87
2018-12-12T07:09:19.208Z,2.60
2018-12-12T07:11:47.808Z,2.90
2018-12-12T07:14:16.349Z,2.60
2018-12-12T07:16:44.841Z,2.63
2018-12-12T07:19:13.246Z,2.60
2018-12-12T07:21:41.803Z,2.63
2018-12-12T07:24:10.357Z,2.70
2018-12-12T07:26:38.827Z,2.17
2018-12-12T07:29:07.497Z,3.37
2018-12-12T07:31:36.319Z,3.07
2018-12-12T07:34:04.997Z,3.60
2018-12-12T07:36:33.678Z,3.80
2018-12-12T07:39:02.360Z,3.53
2018-12-12T07:41:31.282Z,4.00
2018-12-12T07:43:59.684Z,4.27
2018-12-12T07:46:28.457Z,4.03
2018-12-12T07:48:56.999Z,4.97
2018-12-12T07:51:25.607Z,4.03
2018-12-12T07:53:54.126Z,3.93
2018-12-12T07:56:22.599Z,3.83
2018-12-12T07:58:51.043Z,4.50
2018-12-12T08:01:19.774Z,3.93
2018-12-12T08:03:48.143Z,4.60
2018-12-12T08:06:16.667Z,4.70
2018-12-12T08:08:45.352Z,4.60
2018-12-12T08:11:13.728Z,5.17
2018-12-12T08:13:42.113Z,4.97
2018-12-12T08:16:10.684Z,5.10
2018-12-12T08:18:39.397Z,5.13
2018-12-12T08:21:07.991Z,5.07
2018-12-12T08:23:36.583Z,5.93
2018-12-12T08:26:05.176Z,5.47
2018-12-12T08:28:33.724Z,6.10
2018-12-12T08:31:02.204Z,6.37
2018-12-12T08:33:30.606Z,6.00
2018-12-12T08:35:59.017Z,5.80
2018-12-12T08:38:27.845Z,6.00
2018-12-12T08:40:56.233Z,6.53
2018-12-12T08:43:29.557Z,5.73
2018-12-12T08:45:58.742Z,6.67
2018-12-12T08:48:27.197Z,6.90
2018-12-12T08:50:55.783Z,6.43
2018-12-12T08:53:25.554Z,6.50
2018-12-12T08:55:54.136Z,6.23
2018-12-12T08:58:22.888Z,6.17
2018-12-12T09:00:51.347Z,7.10
2018-12-12T09:03:20.578Z,6.63
2018-12-12T09:05:49.159Z,6.63
2018-12-12T09:08:17.749Z,6.30
2018-12-12T09:10:46.217Z,6.43
2018-12-12T09:13:15.437Z,6.70
2018-12-12T09:15:44.157Z,6.97
2018-12-12T09:18:12.723Z,6.53
2018-12-12T09:20:41.225Z,6.70
2018-12-12T09:23:10.281Z,6.67
2018-12-12T09:25:39.240Z,8.03
2018-12-12T09:28:07.991Z,5.93
2018-12-12T09:30:36.667Z,6.60
2018-12-12T09:33:05.302Z,6.10
2018-12-12T09:35:34.347Z,6.93
2018-12-12T09:38:04.153Z,6.33
2018-12-12T09:40:32.743Z,6.33
2018-12-12T09:43:01.433Z,6.03
2018-12-12T09:45:30.185Z,6.50
2018-12-12T09:47:58.669Z,6.03
2018-12-12T09:50:32.043Z,5.90
2018-12-12T09:53:01.652Z,6.07
2018-12-12T09:55:30.663Z,6.07
2018-12-12T09:57:59.813Z,5.90
2018-12-12T10:00:28.365Z,5.67
2018-12-12T10:02:58.039Z,5.93
2018-12-12T10:05:26.644Z,5.57
2018-12-12T10:07:56.230Z,5.60
2018-12-12T10:10:24.727Z,5.40
2018-12-12T10:12:53.830Z,5.33
2018-12-12T10:15:24.480Z,6.00
2018-12-12T10:17:53.752Z,5.00
2018-12-12T10:20:22.222Z,4.70
2018-12-12T10:22:51.251Z,4.90
2018-12-12T10:25:20.166Z,4.90
2018-12-12T10:27:49.305Z,4.63
2018-12-12T10:30:18.518Z,4.73
2018-12-12T10:32:47.053Z,4.67
2018-12-12T10:35:16.127Z,3.97
2018-12-12T10:37:44.675Z,4.70
2018-12-12T10:40:13.219Z,4.83
2018-12-12T10:42:41.698Z,4.83
2018-12-12T10:45:10.110Z,4.50
2018-12-12T10:47:38.780Z,4.23
2018-12-12T10:50:08.944Z,4.33
2018-12-12T10:52:37.391Z,4.40
2018-12-12T10:55:06.115Z,3.93
2018-12-12T10:57:35.356Z,3.57
2018-12-12T11:00:03.942Z,4.13
2018-12-12T11:02:32.843Z,3.27
2018-12-12T11:05:01.303Z,3.83
2018-12-12T11:07:31.373Z,3.73
2018-12-12T11:10:00.823Z,4.17
2018-12-12T11:12:29.281Z,4.13
2018-12-12T11:14:59.046Z,3.80
2018-12-12T11:17:27.709Z,3.47
2018-12-12T11:19:56.363Z,3.30
2018-12-12T11:22:25.735Z,3.53
2018-12-12T11:24:54.386Z,3.23
2018-12-12T11:27:22.804Z,3.77
2018-12-12T11:29:51.359Z,3.13
2018-12-12T11:32:19.848Z,3.40
2018-12-12T11:34:48.874Z,3.30
2018-12-12T11:37:17.339Z,3.03
2018-12-12T11:39:45.870Z,3.60
2018-12-12T11:42:14.735Z,3.83
2018-12-12T11:44:43.350Z,4.13
2018-12-12T11:47:11.722Z,4.07
2018-12-12T11:49:40.336Z,4.23
2018-12-12T11:52:08.757Z,3.50
2018-12-12T11:54:37.376Z,4.27
2018-12-12T11:57:06.829Z,3.97
2018-12-12T11:59:35.290Z,3.90
2018-12-12T12:02:03.836Z,3.70
2018-12-12T12:04:32.314Z,4.30
2018-12-12T12:07:00.704Z,3.83
2018-12-12T12:09:29.104Z,3.70
2018-12-12T12:11:57.493Z,3.47
2018-12-12T12:14:25.882Z,3.47
2018-12-12T12:16:55.168Z,3.57
2018-12-12T12:19:23.649Z,3.63
2018-12-12T12:24:27.095Z,3.67
2018-12-12T12:26:55.550Z,3.10
2018-12-12T12:29:24.333Z,3.37
2018-12-12T12:31:52.711Z,3.53
2018-12-12T12:34:21.107Z,3.73
2018-12-12T12:36:49.966Z,3.80
2018-12-12T12:39:18.372Z,3.40
2018-12-12T12:41:46.783Z,3.43
2018-12-12T12:44:15.171Z,3.03
2018-12-12T12:46:43.603Z,3.50
2018-12-12T12:49:12.022Z,3.00
2018-12-12T12:51:40.663Z,3.40
2018-12-12T12:54:09.173Z,2.90
2018-12-12T12:56:37.651Z,3.10
2018-12-12T12:59:06.054Z,3.00
2018-12-12T13:01:34.628Z,3.50
2018-12-12T13:04:09.467Z,2.90
2018-12-12T13:06:33.739Z,3.20
2018-12-12T13:09:02.425Z,3.10
2018-12-12T13:11:30.832Z,3.00
2018-12-12T13:13:59.272Z,3.00
2018-12-12T13:16:27.702Z,2.53
2018-12-12T13:18:56.346Z,2.90
2018-12-12T13:21:25.754Z,2.63
2018-12-12T13:23:54.400Z,2.90
2018-12-12T13:26:23.325Z,3.10
2018-12-12T13:28:51.793Z,2.53
2018-12-12T13:31:20.435Z,2.83
2018-12-12T13:33:48.892Z,3.00
2018-12-12T13:36:17.396Z,2.63
2018-12-12T13:38:46.534Z,3.17
2018-12-12T13:41:15.105Z,2.57
2018-12-12T13:43:43.904Z,2.80
2018-12-12T13:46:12.490Z,2.57
2018-12-12T13:48:40.897Z,3.07
2018-12-12T13:51:09.344Z,2.57
2018-12-12T13:53:37.776Z,3.03
2018-12-12T13:56:06.182Z,2.80
2018-12-12T13:58:35.477Z,2.77
2018-12-12T14:01:03.895Z,2.53
2018-12-12T14:03:33.052Z,2.77
2018-12-12T14:06:01.459Z,2.53
2018-12-12T14:08:30.037Z,2.67
2018-12-12T14:10:58.630Z,2.63
2018-12-12T14:13:27.428Z,2.40
2018-12-12T14:15:55.839Z,2.07
2018-12-12T14:18:24.256Z,2.53
2018-12-12T14:20:53.161Z,2.40
2018-12-12T14:23:21.718Z,2.53
2018-12-12T14:25:50.297Z,2.80
2018-12-12T14:28:18.778Z,2.60
2018-12-12T14:30:47.302Z,2.50
2018-12-12T14:33:15.696Z,2.37
2018-12-12T14:35:44.186Z,2.93
2018-12-12T14:38:12.674Z,2.40
2018-12-12T14:40:41.192Z,2.40
2018-12-12T14:43:09.692Z,2.30
2018-12-12T14:45:38.248Z,2.57
2018-12-12T14:48:06.659Z,2.40
2018-12-12T14:50:35.968Z,3.00
2018-12-12T14:53:04.599Z,2.47
2018-12-12T14:55:33.320Z,2.60
2018-12-12T14:58:01.713Z,2.30
2018-12-12T15:00:30.208Z,2.20
2018-12-12T15:02:58.986Z,2.87
2018-12-12T15:05:27.367Z,2.50
2018-12-12T15:07:56.388Z,2.50
2018-12-12T15:10:25.146Z,2.30
2018-12-12T15:12:53.609Z,2.40
2018-12-12T15:15:22.047Z,2.40
2018-12-12T15:17:50.641Z,2.60
2018-12-12T15:20:19.530Z,2.43
2018-12-12T15:22:47.933Z,2.10
2018-12-12T15:25:16.543Z,2.40
2018-12-12T15:27:45.230Z,2.00
2018-12-12T15:30:14.215Z,2.30
2018-12-12T15:32:49.033Z,2.40
2018-12-12T15:35:17.406Z,2.20
2018-12-12T15:37:45.983Z,2.03
2018-12-12T15:40:14.484Z,2.47
2018-12-12T15:42:43.057Z,2.43
2018-12-12T15:45:11.449Z,2.17
2018-12-12T15:47:39.863Z,2.63
2018-12-12T15:50:08.271Z,2.47
2018-12-12T15:52:36.715Z,2.60
2018-12-12T15:55:05.167Z,2.57
2018-12-12T15:57:33.772Z,2.50
2018-12-12T16:00:03.825Z,2.50
2018-12-12T16:02:32.962Z,2.50
2018-12-12T16:05:01.378Z,2.30
2018-12-12T16:07:29.805Z,2.50
2018-12-12T16:09:58.237Z,2.70
2018-12-12T16:12:26.858Z,3.13
2018-12-12T16:14:55.350Z,2.90
2018-12-12T16:17:23.811Z,2.60
2018-12-12T16:19:52.409Z,2.67
2018-12-12T16:22:20.950Z,2.47
2018-12-12T16:24:49.439Z,2.93
2018-12-12T16:27:17.874Z,2.30
2018-12-12T16:29:46.588Z,3.03
2018-12-12T16:32:15.027Z,2.57
2018-12-12T16:34:43.474Z,2.70
2018-12-12T16:37:11.894Z,2.47
2018-12-12T16:39:40.437Z,2.83
2018-12-12T16:42:08.957Z,2.80
2018-12-12T16:44:38.172Z,2.87
2018-12-12T16:47:06.716Z,3.07
2018-12-12T16:49:35.362Z,2.80
2018-12-12T16:52:03.810Z,2.80
2018-12-12T16:54:32.953Z,2.97
2018-12-12T16:57:01.366Z,3.10
2018-12-12T16:59:29.798Z,3.00
2018-12-12T17:01:58.766Z,3.40
2018-12-12T17:04:28.091Z,3.33
2018-12-12T17:06:56.677Z,3.00
2018-12-12T17:09:25.372Z,3.20
2018-12-12T17:11:54.097Z,3.13
2018-12-12T17:14:27.015Z,3.50
2018-12-12T17:16:55.836Z,3.20
2018-12-12T17:19:24.407Z,3.70
2018-12-12T17:21:52.796Z,3.57
2018-12-12T17:24:21.366Z,3.60
2018-12-12T17:26:49.763Z,3.70
2018-12-12T17:29:18.227Z,4.13
2018-12-12T17:31:46.637Z,3.70
2018-12-12T17:34:15.048Z,3.90
2018-12-12T17:36:43.780Z,4.20
2018-12-12T17:39:12.438Z,4.53
2018-12-12T17:41:40.819Z,4.77
2018-12-12T17:44:09.365Z,4.70
2018-12-12T17:46:38.866Z,4.23
2018-12-12T17:49:07.399Z,4.67
2018-12-12T17:51:35.942Z,4.50
2018-12-12T17:54:04.391Z,4.67
2018-12-12T17:56:33.245Z,4.87
2018-12-12T17:59:02.671Z,5.27
2018-12-12T18:01:31.144Z,5.03
2018-12-12T18:04:00.605Z,5.57
2018-12-12T18:06:29.547Z,5.50
2018-12-12T18:08:57.974Z,5.23
2018-12-12T18:11:27.021Z,5.53
2018-12-12T18:13:55.505Z,5.30
2018-12-12T18:16:24.162Z,5.60
2018-12-12T18:18:52.579Z,5.63
2018-12-12T18:21:20.979Z,5.50
2018-12-12T18:23:49.387Z,5.67
2018-12-12T18:26:17.793Z,5.63
2018-12-12T18:28:46.354Z,5.80
2018-12-12T18:31:14.875Z,5.77
2018-12-12T18:33:43.302Z,5.70
2018-12-12T18:36:11.715Z,5.80
2018-12-12T18:38:40.523Z,5.90
2018-12-12T18:41:09.201Z,5.60
2018-12-12T18:43:37.719Z,5.63
2018-12-12T18:46:06.337Z,6.30
2018-12-12T18:48:35.011Z,6.00
2018-12-12T18:51:03.405Z,6.33
2018-12-12T18:53:31.923Z,6.17
2018-12-12T18:56:00.338Z,6.60
2018-12-12T18:58:28.749Z,6.03
2018-12-12T19:00:57.195Z,6.33
2018-12-12T19:03:26.360Z,6.83
2018-12-12T19:05:54.817Z,7.10
2018-12-12T19:08:23.215Z,6.40
2018-12-12T19:10:51.802Z,6.40
2018-12-12T19:13:20.206Z,6.13
2018-12-12T19:15:48.929Z,6.20
2018-12-12T19:18:17.482Z,6.67
2018-12-12T19:20:45.908Z,5.80
2018-12-12T19:23:14.462Z,6.73
2018-12-12T19:25:42.909Z,6.30
2018-12-12T19:28:11.347Z,6.57
2018-12-12T19:30:40.676Z,6.23
2018-12-12T19:33:09.082Z,6.00
2018-12-12T19:35:39.286Z,6.63
2018-12-12T19:38:07.661Z,6.10
2018-12-12T19:40:36.375Z,6.27
2018-12-12T19:43:04.784Z,6.83
2018-12-12T19:45:33.340Z,6.70
2018-12-12T19:48:01.956Z,5.47
2018-12-12T19:50:31.192Z,6.47
2018-12-12T19:52:59.936Z,6.60
2018-12-12T19:55:28.537Z,6.70
2018-12-12T19:57:57.016Z,6.47
2018-12-12T20:00:25.539Z,6.97
2018-12-12T20:02:54.011Z,6.90
2018-12-12T20:05:22.405Z,6.33
2018-12-12T20:07:50.813Z,6.93
2018-12-12T20:10:19.363Z,7.67
2018-12-12T20:12:47.936Z,8.20
2018-12-12T20:15:21.685Z,8.00
2018-12-12T20:17:50.403Z,7.30
2018-12-12T20:20:18.846Z,7.20
2018-12-12T20:22:47.494Z,8.80
2018-12-12T20:25:15.928Z,8.03
2018-12-12T20:27:44.307Z,8.67
2018-12-12T20:30:12.714Z,8.07
2018-12-12T20:32:41.140Z,8.50
2018-12-12T20:35:09.592Z,8.77
2018-12-12T20:37:38.003Z,8.77
2018-12-12T20:40:07.226Z,8.33
2018-12-12T20:42:35.776Z,8.63
2018-12-12T20:45:04.737Z,9.10
2018-12-12T20:47:33.127Z,8.37
2018-12-12T20:50:01.527Z,9.00
2018-12-12T20:52:30.051Z,9.13
2018-12-12T20:54:58.467Z,7.90
2018-12-12T20:57:26.930Z,9.17
2018-12-12T20:59:55.384Z,9.03
2018-12-12T21:02:24.584Z,8.63
2018-12-12T21:04:52.983Z,8.00
2018-12-12T21:07:21.438Z,8.70
2018-12-12T21:09:49.907Z,9.47
2018-12-12T21:12:18.339Z,9.83
2018-12-12T21:14:47.240Z,9.50
2018-12-12T21:17:15.656Z,9.90
2018-12-12T21:19:44.113Z,9.90
2018-12-12T21:22:13.434Z,9.30
2018-12-12T21:24:50.226Z,8.30
2018-12-12T21:27:18.968Z,9.63
2018-12-12T21:29:48.313Z,9.67
2018-12-12T21:32:16.921Z,8.93
2018-12-12T21:34:45.674Z,9.43
2018-12-12T21:37:14.263Z,8.90
2018-12-12T21:39:42.721Z,9.43
2018-12-12T21:42:11.239Z,8.40
2018-12-12T21:44:40.299Z,8.60
2018-12-12T21:47:08.727Z,9.03
2018-12-12T21:49:38.483Z,10.00
2018-12-12T21:52:06.982Z,8.90
2018-12-12T21:54:35.572Z,9.33
2018-12-12T21:57:04.041Z,10.50
2018-12-12T21:59:32.544Z,8.93
2018-12-12T22:02:01.184Z,9.80
2018-12-12T22:04:29.634Z,9.33
2018-12-12T22:06:58.101Z,9.13
2018-12-12T22:09:26.723Z,10.00
2018-12-12T22:11:55.384Z,9.30
2018-12-12T22:14:24.570Z,9.83
2018-12-12T22:16:53.115Z,9.73
2018-12-12T22:19:21.731Z,9.80
2018-12-12T22:21:51.306Z,9.97
2018-12-12T22:24:19.883Z,9.40
2018-12-12T22:26:52.172Z,9.47
2018-12-12T22:29:20.638Z,10.10
2018-12-12T22:31:49.127Z,10.10
2018-12-12T22:34:17.811Z,10.57
2018-12-12T22:36:46.512Z,10.40
2018-12-12T22:39:14.931Z,10.37
2018-12-12T22:41:43.376Z,10.97
2018-12-12T22:44:11.782Z,10.27
2018-12-12T22:46:40.201Z,11.07
2018-12-12T22:49:08.720Z,10.47
2018-12-12T22:51:37.129Z,10.80
2018-12-12T22:54:05.655Z,10.97
2018-12-12T22:56:34.227Z,11.27
2018-12-12T22:59:02.696Z,11.37
2018-12-12T23:01:31.223Z,11.10
2018-12-12T23:03:59.611Z,11.03
2018-12-12T23:06:28.358Z,11.63
2018-12-12T23:08:56.774Z,12.00
2018-12-12T23:11:25.456Z,12.37
2018-12-12T23:13:54.263Z,11.87
2018-12-12T23:16:22.743Z,12.97
2018-12-12T23:18:51.155Z,11.67
2018-12-12T23:21:19.591Z,12.30
2018-12-12T23:23:48.151Z,12.57
2018-12-12T23:26:16.564Z,12.23
2018-12-12T23:28:45.032Z,12.87
2018-12-12T23:31:13.434Z,11.90
2018-12-12T23:33:41.859Z,11.70
2018-12-12T23:36:10.264Z,12.00
2018-12-12T23:38:38.757Z,11.50
2018-12-12T23:41:07.206Z,12.10
2018-12-12T23:43:35.662Z,11.83
2018-12-12T23:46:04.060Z,12.07
2018-12-12T23:48:32.712Z,11.73
2018-12-12T23:51:01.282Z,11.80
2018-12-12T23:53:29.711Z,12.07
2018-12-12T23:55:58.101Z,12.03
2018-12-12T23:58:26.538Z,11.73
